チューリッヒ の空港の天気 - METARとTAF

チューリヒ国際空港 ( LSZH / ZRH ) - スイス チューリッヒ
飛行場実況気象(Metar)
観測時間02/26 04:20 CET (02/26 03:20 UTC)
風向・風速北東 7m/s
視程10km以上
天気現象
なし
気温-9℃
湿度62%
気圧1017hPa
METARLSZH 260320Z 04013KT CAVOK M09/M15 Q1017 NOSIG
過去の天気等 Google飛行場航空写真 Wunderground天気予報

過去48時間のMETAR

飛行場予報(TAF)
発表時間: 2/26 03:25 CET (2/26 02:25 UTC)
予報対象時間: 26日4時 CET ~ 27日10時 CET
風向・風速北東 4m/s
視程10km以上
なし
26日8時 CET ~ 26日11時 CET に徐々に
風向・風速北東 7m/s
視程10km以上
全天の4割程度の雲 雲底高度 910m
26日9時 CET ~ 26日20時 CET に一時的に
風向・風速北東 9m/s 瞬間風速 15m/s
26日21時 CET ~ 26日23時 CET に徐々に
風向・風速北東 4m/s
TAF LSZH 260225Z 2603/2709 04008KT CAVOK TXM06/2614Z TNM11/2606Z TNM12/2706Z
BECMG 2607/2610 05013KT 9999 SCT030
TEMPO 2608/2619 05017G30KT
BECMG 2620/2622 04007KT